Time;durP1;ratioP1;P1;durP2;ratioP2;P2;SDS_P1;SDS_P2;PMS_P1;PMS_P2;Temp;Humidity;BMP_temperature;BMP_pressure;BME280_temperature;BME280_humidity;BME280_pressure;Samples;Min_cycle;Max_cycle;Signal;HPM_P1;HPM_P2
2022/02/20 00:02:01;;;;;;;7.90;0.93;;;;;;;3.22;90.98;101103.56;5013886;28;20049;-78
2022/02/20 00:04:26;;;;;;;7.97;1.33;;;;;;;3.23;91.55;101115.78;5013807;28;20096;-77
2022/02/20 00:06:51;;;;;;;6.90;1.10;;;;;;;3.27;92.09;101119.91;5013808;28;20041;-78
2022/02/20 00:09:17;;;;;;;7.50;1.85;;;;;;;3.26;92.26;101118.22;5012052;28;20034;-77
2022/02/20 00:11:42;;;;;;;7.72;1.02;;;;;;;3.27;92.25;101136.56;5013857;28;20026;-79
2022/02/20 00:14:08;;;;;;;6.75;1.20;;;;;;;3.27;92.18;101143.59;5012184;28;20097;-78
2022/02/20 00:16:33;;;;;;;7.80;1.17;;;;;;;3.28;91.60;101146.13;5013664;28;20036;-77
2022/02/20 00:18:58;;;;;;;4.25;0.63;;;;;;;3.32;91.43;101152.09;5012217;28;20038;-77
2022/02/20 00:21:24;;;;;;;8.85;1.10;;;;;;;3.34;91.32;101152.84;5013520;28;20120;-78
2022/02/20 00:23:49;;;;;;;5.60;0.82;;;;;;;3.32;90.97;101155.56;5013357;28;20062;-76
2022/02/20 00:26:15;;;;;;;6.05;1.08;;;;;;;3.31;90.73;101163.53;5013422;28;20034;-76
2022/02/20 00:28:40;;;;;;;4.25;1.30;;;;;;;3.33;90.20;101173.03;5013499;28;20093;-77
2022/02/20 00:31:06;;;;;;;7.38;1.02;;;;;;;3.33;89.23;101172.19;5011928;28;20064;-79
2022/02/20 00:33:32;;;;;;;9.23;1.00;;;;;;;3.33;88.93;101175.66;5013095;28;20389;-76
2022/02/20 00:35:57;;;;;;;12.13;0.90;;;;;;;3.37;88.79;101175.50;5013119;28;20439;-76
2022/02/20 00:38:22;;;;;;;7.28;1.05;;;;;;;3.35;89.01;101171.16;4995431;28;20102;-77
2022/02/20 00:40:48;;;;;;;5.45;1.00;;;;;;;3.33;89.34;101178.31;5012870;28;20044;-76
2022/02/20 00:43:15;;;;;;;6.03;1.00;;;;;;;3.37;88.94;101170.25;5011881;28;20041;-76
2022/02/20 00:45:40;;;;;;;8.85;1.10;;;;;;;3.41;88.34;101169.16;5011720;28;20439;-76
2022/02/20 00:48:06;;;;;;;6.32;1.20;;;;;;;3.43;87.85;101172.53;5013118;28;20128;-78
2022/02/20 00:50:31;;;;;;;3.28;0.65;;;;;;;3.45;87.43;101176.78;5013237;28;20343;-77
2022/02/20 00:52:57;;;;;;;4.28;0.80;;;;;;;3.48;86.90;101178.41;5012894;28;20113;-77
2022/02/20 00:55:25;;;;;;;4.65;0.70;;;;;;;3.47;86.85;101180.16;5013031;28;20106;-77
2022/02/20 00:57:54;;;;;;;8.07;1.08;;;;;;;3.49;86.87;101185.34;5011809;28;20065;-77
2022/02/20 01:00:20;;;;;;;6.10;1.48;;;;;;;3.52;86.19;101172.88;5012925;28;20439;-77
2022/02/20 01:02:45;;;;;;;8.82;1.00;;;;;;;3.53;86.56;101174.56;5012672;28;20189;-77
2022/02/20 01:05:11;;;;;;;7.25;1.00;;;;;;;3.55;86.87;101171.00;5012910;28;20196;-79
2022/02/20 01:07:37;;;;;;;10.23;1.23;;;;;;;3.58;87.37;101174.28;5015660;28;20076;-76
2022/02/20 01:10:04;;;;;;;11.15;1.17;;;;;;;3.62;87.21;101175.81;5018695;28;20400;-76
2022/02/20 01:12:30;;;;;;;6.65;1.65;;;;;;;3.62;87.68;101189.00;5014412;28;20133;-77
2022/02/20 01:14:55;;;;;;;9.18;1.17;;;;;;;3.65;87.28;101193.25;5013456;28;20442;-77
2022/02/20 01:17:21;;;;;;;3.50;0.55;;;;;;;3.66;86.45;101195.78;5013078;28;20115;-77
2022/02/20 01:19:48;;;;;;;8.93;1.15;;;;;;;3.61;85.51;101196.97;5011113;28;20041;-76
2022/02/20 01:22:13;;;;;;;1.80;0.35;;;;;;;3.60;85.13;101197.91;5012397;28;20033;-78
2022/02/20 01:24:38;;;;;;;4.95;0.80;;;;;;;3.59;85.16;101198.84;5012593;28;20110;-76
2022/02/20 01:27:04;;;;;;;5.07;0.93;;;;;;;3.58;85.63;101205.03;4994364;28;20091;-76
2022/02/20 01:29:29;;;;;;;7.13;1.20;;;;;;;3.56;85.74;101199.84;5011915;28;20114;-77
2022/02/20 01:31:55;;;;;;;13.90;1.00;;;;;;;3.51;86.04;101194.00;5012319;28;20057;-76
2022/02/20 01:34:21;;;;;;;8.23;1.17;;;;;;;3.55;86.49;101187.63;5011968;28;20034;-76
2022/02/20 01:36:47;;;;;;;5.03;0.95;;;;;;;3.54;86.55;101183.31;5012234;28;20115;-76
2022/02/20 01:39:12;;;;;;;5.10;1.00;;;;;;;3.54;86.80;101172.78;5011939;28;20431;-78
2022/02/20 01:41:38;;;;;;;5.55;0.80;;;;;;;3.54;87.02;101175.44;5011525;28;20097;-75
2022/02/20 01:44:05;;;;;;;2.72;0.77;;;;;;;3.55;87.30;101174.47;5012321;28;20397;-75
2022/02/20 01:46:32;;;;;;;6.07;1.45;;;;;;;3.55;87.89;101181.53;5010280;28;20053;-76
2022/02/20 01:48:57;;;;;;;10.90;1.67;;;;;;;3.56;87.18;101170.91;5011389;28;20161;-75
2022/02/20 01:51:23;;;;;;;8.15;1.08;;;;;;;3.53;86.09;101168.47;5011708;28;20514;-76
2022/02/20 01:53:48;;;;;;;2.65;0.57;;;;;;;3.42;86.08;101184.84;5012203;28;20052;-76
2022/02/20 01:56:13;;;;;;;7.35;0.98;;;;;;;3.34;85.43;101190.53;5011558;28;20050;-78
2022/02/20 01:58:41;;;;;;;3.45;0.60;;;;;;;3.29;85.63;101179.41;5011432;28;20034;-76
2022/02/20 02:01:06;;;;;;;4.20;0.93;;;;;;;3.26;85.59;101176.09;5011727;28;20105;-75
2022/02/20 02:03:33;;;;;;;7.38;1.00;;;;;;;3.21;85.81;101180.75;5011612;28;20068;-75
2022/02/20 02:05:58;;;;;;;3.63;0.95;;;;;;;3.15;86.16;101164.38;5012046;28;20078;-76
2022/02/20 02:08:24;;;;;;;6.22;1.65;;;;;;;3.12;86.67;101171.56;5011743;28;20100;-76
2022/02/20 02:10:49;;;;;;;4.85;0.82;;;;;;;3.10;86.89;101170.81;5011667;28;20386;-76
2022/02/20 02:13:15;;;;;;;7.25;0.95;;;;;;;3.08;87.43;101162.16;5011909;28;20064;-77
2022/02/20 02:15:51;;;;;;;6.22;0.88;;;;;;;3.01;87.50;101153.75;5011222;28;20037;-78
2022/02/20 02:18:18;;;;;;;3.78;0.65;;;;;;;2.96;87.89;101161.03;5011163;28;20512;-78
2022/02/20 02:20:44;;;;;;;9.57;1.13;;;;;;;2.92;88.58;101160.34;5011799;28;20061;-76
2022/02/20 02:23:10;;;;;;;9.20;1.88;;;;;;;2.93;88.86;101163.84;5011317;28;20069;-77
2022/02/20 02:25:38;;;;;;;10.50;1.30;;;;;;;2.90;89.18;101164.00;5011260;28;20053;-75
2022/02/20 02:28:04;;;;;;;1.88;0.63;;;;;;;2.86;89.56;101150.16;5011526;28;20076;-78
2022/02/20 02:30:30;;;;;;;4.95;1.00;;;;;;;2.85;89.74;101151.06;5010854;28;20386;-77
2022/02/20 02:32:55;;;;;;;7.30;1.08;;;;;;;2.82;89.90;101152.09;5011418;28;20044;-77
2022/02/20 02:35:20;;;;;;;4.90;1.20;;;;;;;2.83;90.14;101135.38;5011133;28;20124;-76
2022/02/20 02:37:46;;;;;;;9.07;2.08;;;;;;;2.83;90.34;101118.78;5011525;28;20486;-76
2022/02/20 02:40:11;;;;;;;9.38;1.33;;;;;;;2.83;90.66;101121.41;5009907;28;20034;-76
2022/02/20 02:42:37;;;;;;;4.45;1.27;;;;;;;2.80;90.47;101126.84;5011200;28;20466;-76
2022/02/20 02:45:02;;;;;;;9.85;2.25;;;;;;;2.78;90.81;101123.44;5012212;28;20128;-76
2022/02/20 02:47:30;;;;;;;6.45;1.90;;;;;;;2.77;90.70;101117.31;5014619;28;20459;-78
2022/02/20 02:49:55;;;;;;;11.65;2.60;;;;;;;2.70;90.64;101125.63;5015508;28;20169;-75
2022/02/20 02:52:21;;;;;;;7.53;2.00;;;;;;;2.63;91.35;101118.06;5013048;28;20076;-77
2022/02/20 02:54:47;;;;;;;4.35;1.77;;;;;;;2.59;91.72;101129.66;5010836;28;20037;-75
2022/02/20 02:57:12;;;;;;;9.98;1.90;;;;;;;2.55;92.05;101130.75;5010867;28;20034;-76
2022/02/20 02:59:37;;;;;;;4.10;1.60;;;;;;;2.53;92.50;101123.91;5010836;28;20117;-75
2022/02/20 03:02:04;;;;;;;9.68;2.30;;;;;;;2.50;93.26;101118.81;5010924;28;20175;-78
2022/02/20 03:04:31;;;;;;;5.97;2.20;;;;;;;2.51;93.70;101120.47;5010884;28;20034;-76
2022/02/20 03:06:56;;;;;;;10.60;2.30;;;;;;;2.50;93.65;101119.63;5009780;28;20112;-76
2022/02/20 03:09:21;;;;;;;8.75;2.40;;;;;;;2.52;94.13;101109.88;5010719;28;20069;-77
2022/02/20 03:11:47;;;;;;;9.88;3.28;;;;;;;2.56;94.25;101102.72;5009082;28;20056;-75
2022/02/20 03:14:12;;;;;;;8.75;3.13;;;;;;;2.58;94.56;101087.72;5009121;28;20103;-76
2022/02/20 03:16:38;;;;;;;9.30;3.92;;;;;;;2.64;93.98;101090.00;5010632;28;20041;-76
2022/02/20 03:19:03;;;;;;;8.45;3.13;;;;;;;2.64;94.26;101080.38;5009348;28;20450;-76
2022/02/20 03:21:29;;;;;;;10.65;3.80;;;;;;;2.64;94.23;101084.75;5010290;28;20109;-76
2022/02/20 03:23:55;;;;;;;9.32;4.93;;;;;;;2.62;94.42;101069.06;5010499;28;20076;-76
2022/02/20 03:26:20;;;;;;;16.67;5.95;;;;;;;2.63;94.57;101068.16;5010327;28;20053;-78
2022/02/20 03:28:46;;;;;;;16.05;5.72;;;;;;;2.65;94.35;101078.56;5010619;28;20103;-75
2022/02/20 03:31:11;;;;;;;12.45;5.68;;;;;;;2.65;94.09;101074.16;5010702;28;20033;-75
2022/02/20 03:33:37;;;;;;;8.05;4.97;;;;;;;2.65;94.07;101074.16;5010410;28;20045;-77
2022/02/20 03:36:03;;;;;;;14.05;5.65;;;;;;;2.68;94.17;101069.69;5010563;28;20121;-77
2022/02/20 03:38:28;;;;;;;15.63;5.50;;;;;;;2.67;94.17;101063.56;5010560;28;20030;-79
2022/02/20 03:40:53;;;;;;;17.27;5.70;;;;;;;2.66;94.32;101051.38;5010478;28;20073;-76
2022/02/20 03:43:19;;;;;;;11.88;6.47;;;;;;;2.65;94.44;101044.41;5010302;28;20026;-76
2022/02/20 03:45:44;;;;;;;12.35;7.30;;;;;;;2.64;94.88;101054.09;5010256;28;20102;-76
2022/02/20 03:48:10;;;;;;;16.15;7.32;;;;;;;2.63;94.99;101052.38;5010238;28;20057;-75
2022/02/20 03:50:35;;;;;;;14.93;7.68;;;;;;;2.61;95.25;101046.38;5010400;28;20446;-78
2022/02/20 03:53:00;;;;;;;16.17;7.93;;;;;;;2.61;95.55;101037.63;5010265;28;20121;-76
2022/02/20 03:55:26;;;;;;;19.80;9.15;;;;;;;2.60;95.89;101041.19;5008888;28;20117;-78
2022/02/20 03:57:51;;;;;;;15.60;9.90;;;;;;;2.60;96.15;101035.94;5008717;28;20041;-76
2022/02/20 04:00:20;;;;;;;19.88;9.32;;;;;;;2.58;96.63;101024.66;5008599;28;20037;-76
2022/02/20 04:02:45;;;;;;;14.55;8.90;;;;;;;2.55;97.11;101020.41;5010130;28;20428;-76
2022/02/20 04:05:13;;;;;;;18.08;9.60;;;;;;;2.55;97.45;101007.28;5010070;28;20053;-76
2022/02/20 04:07:40;;;;;;;13.65;8.80;;;;;;;2.52;97.73;101003.97;5009958;28;20030;-76
2022/02/20 04:10:07;;;;;;;22.42;10.00;;;;;;;2.52;97.78;101006.59;5010164;28;20058;-75
2022/02/20 04:12:33;;;;;;;16.20;9.85;;;;;;;2.51;98.14;101010.16;5010057;28;20026;-76
2022/02/20 04:14:58;;;;;;;18.05;9.35;;;;;;;2.50;98.82;100990.94;5009985;28;20042;-76
2022/02/20 04:17:24;;;;;;;16.73;9.77;;;;;;;2.50;99.27;100982.22;5010451;28;20140;-76
2022/02/20 04:19:51;;;;;;;17.48;8.82;;;;;;;2.50;99.72;100966.44;5013652;28;20465;-76
2022/02/20 04:22:17;;;;;;;19.10;8.63;;;;;;;2.50;100.00;100959.41;5015798;28;20046;-76
2022/02/20 04:24:43;;;;;;;18.05;8.75;;;;;;;2.53;100.00;100956.59;5017873;28;20038;-77
2022/02/20 04:27:09;;;;;;;18.73;7.40;;;;;;;2.51;100.00;100947.97;5016031;28;20033;-76
2022/02/20 04:29:34;;;;;;;15.70;7.57;;;;;;;2.49;100.00;100938.47;5012241;28;20494;-76
2022/02/20 04:32:00;;;;;;;16.98;7.82;;;;;;;2.51;100.00;100936.59;5013485;28;20030;-76
2022/02/20 04:34:26;;;;;;;17.48;7.40;;;;;;;2.54;100.00;100937.31;5013453;28;20045;-76
2022/02/20 04:36:52;;;;;;;17.63;8.60;;;;;;;2.57;100.00;100928.41;5011822;28;20100;-76
2022/02/20 04:39:17;;;;;;;16.20;8.60;;;;;;;2.55;100.00;100920.59;5013154;28;20030;-76
2022/02/20 04:41:42;;;;;;;14.65;7.40;;;;;;;2.56;100.00;100911.78;5013401;28;20088;-76
2022/02/20 04:44:08;;;;;;;22.13;8.15;;;;;;;2.59;100.00;100908.16;5013148;28;20429;-76
2022/02/20 04:46:35;;;;;;;16.00;8.18;;;;;;;2.61;100.00;100901.00;5011740;28;20482;-76
2022/02/20 04:49:04;;;;;;;15.73;7.78;;;;;;;2.59;100.00;100882.72;5012553;28;20089;-76
2022/02/20 04:51:29;;;;;;;19.30;8.93;;;;;;;2.61;100.00;100865.09;5013169;28;20040;-76
2022/02/20 04:53:55;;;;;;;19.92;9.32;;;;;;;2.61;100.00;100859.84;5012901;28;20030;-76
2022/02/20 04:56:20;;;;;;;16.45;9.07;;;;;;;2.63;100.00;100857.13;5013386;28;20145;-76
2022/02/20 04:58:45;;;;;;;25.58;10.20;;;;;;;2.65;100.00;100845.56;5012846;28;20030;-77
2022/02/20 05:01:11;;;;;;;20.45;9.38;;;;;;;2.68;100.00;100839.31;5011450;28;20359;-76
2022/02/20 05:03:36;;;;;;;24.52;9.52;;;;;;;2.71;100.00;100849.63;5012896;28;20034;-76
2022/02/20 05:06:02;;;;;;;23.52;9.73;;;;;;;2.76;100.00;100838.88;5012512;28;20073;-76
2022/02/20 05:08:28;;;;;;;33.70;11.48;;;;;;;2.81;100.00;100824.53;5012601;28;20105;-76
2022/02/20 05:10:53;;;;;;;30.98;11.10;;;;;;;2.93;100.00;100811.63;5012352;28;20125;-75
2022/02/20 05:13:18;;;;;;;25.23;10.52;;;;;;;2.94;100.00;100814.16;5012713;28;20056;-76
2022/02/20 05:15:47;;;;;;;30.50;10.82;;;;;;;2.98;100.00;100799.03;5011212;28;20127;-76
2022/02/20 05:18:12;;;;;;;29.83;11.70;;;;;;;3.02;100.00;100787.41;5012442;28;20026;-76
2022/02/20 05:20:38;;;;;;;36.05;12.10;;;;;;;3.14;100.00;100798.97;5012812;28;20505;-76
2022/02/20 05:23:03;;;;;;;35.97;12.63;;;;;;;3.23;100.00;100781.81;5012894;28;20458;-76
2022/02/20 05:25:29;;;;;;;42.70;14.07;;;;;;;3.46;100.00;100788.28;5012009;28;20112;-77
2022/02/20 05:27:54;;;;;;;34.22;13.20;;;;;;;3.52;100.00;100787.88;5012176;28;20500;-77
2022/02/20 05:30:20;;;;;;;41.83;14.90;;;;;;;3.61;100.00;100781.22;4994313;28;20058;-77
2022/02/20 05:32:46;;;;;;;47.45;16.65;;;;;;;3.66;100.00;100773.91;5011242;28;20073;-77
2022/02/20 05:35:12;;;;;;;37.55;14.98;;;;;;;3.77;100.00;100781.09;5010814;28;20068;-76
2022/02/20 05:37:49;;;;;;;36.30;14.75;;;;;;;3.86;100.00;100772.63;5012043;28;20540;-76
2022/02/20 05:40:20;;;;;;;38.85;16.77;;;;;;;3.98;100.00;100761.31;5012278;28;20114;-77
2022/02/20 05:42:46;;;;;;;31.85;14.77;;;;;;;4.09;100.00;100765.91;5012187;28;20121;-77
2022/02/20 05:45:11;;;;;;;38.90;13.60;;;;;;;4.16;100.00;100754.00;5012280;28;20121;-76
2022/02/20 05:47:37;;;;;;;39.03;13.10;;;;;;;4.25;100.00;100749.94;5011783;28;20049;-77
2022/02/20 05:50:06;;;;;;;30.08;12.02;;;;;;;4.35;100.00;100747.53;5010464;28;20046;-76
2022/02/20 05:52:31;;;;;;;31.80;10.35;;;;;;;4.46;100.00;100745.03;5011864;28;20077;-76
2022/02/20 05:54:57;;;;;;;34.80;10.00;;;;;;;4.51;100.00;100728.91;5011521;28;20041;-76
2022/02/20 05:57:22;;;;;;;30.20;10.13;;;;;;;4.54;100.00;100728.75;5011788;28;20034;-76
2022/02/20 05:59:48;;;;;;;32.75;9.95;;;;;;;4.62;100.00;100726.41;5012148;28;20037;-77
2022/02/20 06:02:14;;;;;;;27.58;9.60;;;;;;;4.68;100.00;100709.34;5011757;28;20029;-76
2022/02/20 06:04:39;;;;;;;29.48;9.85;;;;;;;4.77;100.00;100711.34;5012068;28;20316;-76
2022/02/20 06:07:05;;;;;;;28.38;9.05;;;;;;;4.87;100.00;100709.78;5011497;28;20034;-76
2022/02/20 06:09:30;;;;;;;27.40;9.18;;;;;;;4.96;100.00;100705.66;5011942;28;20060;-76
2022/02/20 06:11:56;;;;;;;29.92;8.98;;;;;;;5.07;100.00;100703.09;5011289;28;20095;-76
2022/02/20 06:14:21;;;;;;;39.47;8.98;;;;;;;5.18;100.00;100705.03;5011506;28;20046;-74
2022/02/20 06:16:47;;;;;;;35.63;9.32;;;;;;;5.36;100.00;100704.66;5011557;28;20141;-75
2022/02/20 06:19:12;;;;;;;45.75;8.98;;;;;;;5.49;100.00;100700.19;5010219;28;20061;-75
2022/02/20 06:21:38;;;;;;;37.83;7.78;;;;;;;5.59;100.00;100692.47;5010110;28;20066;-75
2022/02/20 06:24:04;;;;;;;47.88;7.90;;;;;;;5.76;100.00;100700.03;5010993;28;20048;-76
2022/02/20 06:26:29;;;;;;;54.30;7.97;;;;;;;5.96;100.00;100695.91;5010736;28;20046;-75
2022/02/20 06:28:55;;;;;;;40.20;5.78;;;;;;;6.19;100.00;100688.13;5011225;28;20034;-75
2022/02/20 06:31:20;;;;;;;54.05;6.55;;;;;;;6.25;100.00;100686.81;5011173;28;20136;-75
2022/02/20 06:33:47;;;;;;;65.45;6.45;;;;;;;6.40;100.00;100690.94;5009777;28;20113;-75
2022/02/20 06:36:13;;;;;;;48.95;6.15;;;;;;;6.44;100.00;100678.34;5011330;28;20485;-75
2022/02/20 06:38:39;;;;;;;50.63;6.03;;;;;;;6.56;100.00;100681.88;5010843;28;20038;-74
2022/02/20 06:41:05;;;;;;;53.03;5.68;;;;;;;6.59;100.00;100684.28;5010908;28;20431;-74
2022/02/20 06:43:30;;;;;;;50.60;6.63;;;;;;;6.62;100.00;100678.75;5011054;28;20034;-75
2022/02/20 06:45:55;;;;;;;58.28;6.72;;;;;;;6.70;100.00;100687.78;5011095;28;20030;-75
2022/02/20 06:48:22;;;;;;;56.70;6.70;;;;;;;6.76;100.00;100675.88;5010570;28;20029;-74
2022/02/20 06:50:47;;;;;;;59.60;8.32;;;;;;;6.84;100.00;100693.81;5010952;28;20060;-76
2022/02/20 06:53:13;;;;;;;67.43;7.28;;;;;;;6.88;100.00;100688.16;5009461;28;20041;-75
2022/02/20 06:55:38;;;;;;;60.80;8.02;;;;;;;6.92;100.00;100685.28;5009217;28;20132;-75
2022/02/20 06:58:03;;;;;;;56.40;7.35;;;;;;;6.94;100.00;100668.34;5009026;28;20056;-75
2022/02/20 07:00:29;;;;;;;59.63;6.97;;;;;;;6.97;100.00;100660.16;5010850;28;20339;-74
2022/02/20 07:02:54;;;;;;;53.70;7.30;;;;;;;7.03;100.00;100651.75;5010873;28;20034;-75
2022/02/20 07:05:20;;;;;;;53.65;6.68;;;;;;;7.04;100.00;100634.06;5009142;28;20096;-74
2022/02/20 07:07:45;;;;;;;50.22;6.85;;;;;;;7.07;100.00;100616.13;5009048;28;20362;-73
2022/02/20 07:10:11;;;;;;;69.90;7.05;;;;;;;7.11;100.00;100651.13;5010367;28;20030;-74
2022/02/20 07:12:37;;;;;;;56.55;7.22;;;;;;;7.13;100.00;100653.66;5010402;28;20037;-75
2022/02/20 07:15:03;;;;;;;57.13;7.72;;;;;;;7.15;100.00;100663.16;5010207;28;20102;-74
2022/02/20 07:17:29;;;;;;;48.30;7.40;;;;;;;7.17;100.00;100653.28;5010744;28;20046;-74
2022/02/20 07:19:54;;;;;;;59.60;6.95;;;;;;;7.16;100.00;100645.47;5009971;28;20387;-75
2022/02/20 07:22:20;;;;;;;61.78;7.95;;;;;;;7.14;100.00;100624.44;5010162;28;20042;-75
2022/02/20 07:24:45;;;;;;;64.60;8.00;;;;;;;7.15;100.00;100635.84;5010220;28;20068;-75
2022/02/20 07:27:11;;;;;;;56.10;7.45;;;;;;;7.18;100.00;100636.47;5010299;28;20447;-75
2022/02/20 07:29:36;;;;;;;57.40;7.40;;;;;;;7.17;100.00;100626.84;5010412;28;20053;-76
2022/02/20 07:32:02;;;;;;;65.55;7.13;;;;;;;7.17;100.00;100616.25;5008803;28;20042;-75
2022/02/20 07:34:27;;;;;;;59.22;7.30;;;;;;;7.18;100.00;100617.06;5013288;28;20101;-75
2022/02/20 07:36:54;;;;;;;60.92;7.63;;;;;;;7.25;100.00;100605.03;5011119;28;20072;-75
2022/02/20 07:39:20;;;;;;;69.45;7.97;;;;;;;7.23;100.00;100612.28;5009644;28;20068;-74
2022/02/20 07:41:46;;;;;;;81.00;10.95;;;;;;;7.22;100.00;100608.78;4992834;28;20038;-75
2022/02/20 07:44:11;;;;;;;75.28;8.52;;;;;;;7.26;100.00;100609.38;5010218;28;20501;-76
2022/02/20 07:46:36;;;;;;;71.82;7.70;;;;;;;7.29;100.00;100600.38;5008670;28;20038;-76
2022/02/20 07:49:03;;;;;;;69.60;8.15;;;;;;;7.35;100.00;100636.91;5009779;28;20107;-75
2022/02/20 07:51:28;;;;;;;71.20;9.50;;;;;;;7.36;100.00;100614.75;4992689;28;20375;-75
2022/02/20 07:53:55;;;;;;;59.20;8.73;;;;;;;7.38;100.00;100623.44;5012631;28;20061;-75
2022/02/20 07:56:21;;;;;;;76.75;9.23;;;;;;;7.44;100.00;100622.09;5014371;28;20109;-76
2022/02/20 07:58:46;;;;;;;76.53;9.55;;;;;;;7.43;100.00;100631.84;5013966;28;20064;-76
2022/02/20 08:01:12;;;;;;;65.63;9.70;;;;;;;7.46;100.00;100631.59;4996083;28;20041;-77
2022/02/20 08:03:38;;;;;;;77.28;9.10;;;;;;;7.49;100.00;100625.22;5014191;28;20034;-77
2022/02/20 08:06:04;;;;;;;81.70;9.93;;;;;;;7.49;100.00;100610.16;5013525;28;20030;-77
2022/02/20 08:08:31;;;;;;;79.35;11.18;;;;;;;7.53;100.00;100616.88;5013905;28;20022;-75
2022/02/20 08:10:58;;;;;;;67.90;9.02;;;;;;;7.56;100.00;100599.91;5028998;28;20033;-75
2022/02/20 08:13:23;;;;;;;70.85;7.85;;;;;;;7.65;100.00;100614.22;5013213;28;20037;-74
2022/02/20 08:15:48;;;;;;;65.28;8.25;;;;;;;7.70;100.00;100604.94;5013846;28;20394;-75
2022/02/20 08:18:14;;;;;;;67.22;8.10;;;;;;;7.73;100.00;100607.34;5014024;28;20034;-75
2022/02/20 08:20:40;;;;;;;63.50;8.77;;;;;;;7.77;100.00;100615.84;5012370;28;20038;-75
2022/02/20 08:23:06;;;;;;;67.38;9.20;;;;;;;7.80;100.00;100617.41;5013801;28;20030;-77
2022/02/20 08:25:32;;;;;;;51.55;7.38;;;;;;;7.87;100.00;100629.19;5013158;28;20161;-75
2022/02/20 08:27:57;;;;;;;58.85;8.75;;;;;;;7.91;100.00;100614.69;5011957;28;20108;-77
2022/02/20 08:30:23;;;;;;;61.75;8.80;;;;;;;7.92;100.00;100621.69;5012520;28;20196;-76
2022/02/20 08:32:48;;;;;;;61.80;8.82;;;;;;;7.92;100.00;100600.50;5012003;28;20034;-77
2022/02/20 08:35:14;;;;;;;61.70;8.43;;;;;;;7.92;100.00;100627.81;5012582;28;20030;-77
2022/02/20 08:37:43;;;;;;;64.75;9.20;;;;;;;7.94;100.00;100631.22;5028952;28;20431;-77
2022/02/20 08:40:10;;;;;;;60.13;8.60;;;;;;;8.00;100.00;100632.50;5013464;28;20117;-76
2022/02/20 08:42:35;;;;;;;55.78;8.40;;;;;;;8.02;100.00;100637.69;5013684;28;20040;-77
2022/02/20 08:45:01;;;;;;;69.15;10.43;;;;;;;8.03;100.00;100621.66;5012180;28;20030;-78
2022/02/20 08:47:27;;;;;;;78.32;10.20;;;;;;;8.05;100.00;100655.97;5013337;28;20029;-76
2022/02/20 08:49:53;;;;;;;74.78;10.77;;;;;;;8.05;100.00;100630.31;5013313;28;20123;-78
2022/02/20 08:52:18;;;;;;;71.30;9.70;;;;;;;8.03;100.00;100626.09;5012970;28;20072;-76
2022/02/20 08:54:44;;;;;;;58.22;9.70;;;;;;;8.03;100.00;100603.09;5013294;28;20065;-77
2022/02/20 08:57:09;;;;;;;70.35;11.13;;;;;;;8.09;100.00;100612.31;5012170;28;20513;-75
2022/02/20 08:59:35;;;;;;;65.40;9.23;;;;;;;8.14;99.57;100611.97;5013332;28;20462;-74
2022/02/20 09:02:01;;;;;;;64.70;8.75;;;;;;;8.20;98.73;100633.47;5013211;28;20034;-75
2022/02/20 09:04:27;;;;;;;67.22;9.18;;;;;;;8.22;98.56;100630.69;5011902;28;20071;-75
2022/02/20 09:06:52;;;;;;;70.55;9.27;;;;;;;8.24;98.62;100660.56;5011299;28;20057;-75
2022/02/20 09:09:19;;;;;;;72.45;10.13;;;;;;;8.27;98.27;100615.25;4995168;28;20065;-75
2022/02/20 09:11:44;;;;;;;76.85;10.38;;;;;;;8.29;98.48;100621.28;5012908;28;20453;-76
2022/02/20 09:14:10;;;;;;;66.45;10.15;;;;;;;8.30;98.36;100620.31;5013002;28;20068;-78
2022/02/20 09:16:35;;;;;;;70.97;9.43;;;;;;;8.28;98.47;100615.13;5013125;28;20041;-76
2022/02/20 09:19:03;;;;;;;80.40;10.43;;;;;;;8.29;98.36;100610.66;5012627;28;20034;-81
2022/02/20 09:21:30;;;;;;;81.65;11.10;;;;;;;8.28;98.13;100607.19;5012713;28;20038;-78
2022/02/20 09:23:56;;;;;;;70.60;10.35;;;;;;;8.33;97.57;100624.50;5011065;28;20135;-79
2022/02/20 09:26:21;;;;;;;75.25;11.05;;;;;;;8.37;97.09;100610.00;5012008;28;20478;-81
2022/02/20 09:28:47;;;;;;;91.55;10.88;;;;;;;8.36;97.00;100601.22;4994750;28;20037;-80
2022/02/20 09:31:12;;;;;;;75.53;10.07;;;;;;;8.35;96.68;100628.69;5012084;28;20462;-79
2022/02/20 09:33:37;;;;;;;77.72;11.38;;;;;;;8.32;96.82;100630.78;5010675;28;20065;-79
2022/02/20 09:36:03;;;;;;;76.72;10.82;;;;;;;8.33;96.55;100590.03;5010909;28;20422;-81
2022/02/20 09:38:28;;;;;;;69.75;10.80;;;;;;;8.35;96.84;100594.25;5010713;28;20044;-77
2022/02/20 09:40:55;;;;;;;74.15;10.82;;;;;;;8.35;96.78;100582.81;5012078;28;20044;-79
2022/02/20 09:43:20;;;;;;;83.22;11.05;;;;;;;8.32;97.01;100593.66;5011431;28;20038;-78
2022/02/20 09:45:47;;;;;;;77.60;10.50;;;;;;;8.23;97.55;100603.25;5011689;28;20398;-78
2022/02/20 09:48:13;;;;;;;84.78;10.77;;;;;;;8.20;97.69;100611.44;5011908;28;20112;-78
2022/02/20 09:50:41;;;;;;;81.55;11.10;;;;;;;8.12;98.45;100610.28;5026691;28;20113;-79
2022/02/20 09:53:06;;;;;;;93.43;12.60;;;;;;;8.03;99.02;100616.34;5011562;28;20021;-78
2022/02/20 09:55:32;;;;;;;74.97;10.32;;;;;;;7.99;99.45;100608.78;5011861;28;20044;-75
2022/02/20 09:57:57;;;;;;;77.00;11.45;;;;;;;7.92;100.00;100613.75;5010509;28;20491;-76
2022/02/20 10:00:23;;;;;;;83.07;11.10;;;;;;;7.87;100.00;100616.78;5011638;28;20034;-77
2022/02/20 10:02:48;;;;;;;85.50;10.15;;;;;;;7.80;100.00;100605.00;5011676;28;20041;-76
2022/02/20 10:05:18;;;;;;;87.40;11.90;;;;;;;7.76;100.00;100607.06;5010789;28;20378;-78
2022/02/20 10:07:44;;;;;;;76.65;11.05;;;;;;;7.74;100.00;100611.63;5011565;28;20110;-75
2022/02/20 10:10:15;;;;;;;81.97;12.70;;;;;;;7.70;100.00;100628.78;5010631;28;20403;-74
2022/02/20 10:12:41;;;;;;;75.55;10.90;;;;;;;7.67;100.00;100625.53;5011858;28;20080;-75
2022/02/20 10:15:35;;;;;;;80.93;11.05;;;;;;;7.68;100.00;100614.78;5010873;28;20030;-75
2022/02/20 10:18:21;;;;;;;96.85;12.57;;;;;;;7.68;100.00;100617.44;5011498;28;20022;-75
2022/02/20 10:20:58;;;;;;;96.43;10.73;;;;;;;7.67;100.00;100622.88;5011786;28;20077;-74
2022/02/20 10:23:23;;;;;;;82.97;11.35;;;;;;;7.66;100.00;100611.44;5011782;28;20040;-73
2022/02/20 10:25:49;;;;;;;87.22;12.02;;;;;;;7.66;100.00;100606.16;5009933;28;20117;-75
2022/02/20 10:28:15;;;;;;;96.50;11.50;;;;;;;7.66;100.00;100614.09;5011181;28;20138;-75
2022/02/20 10:30:41;;;;;;;89.18;11.50;;;;;;;7.67;100.00;100618.41;5011250;28;20124;-75
2022/02/20 10:33:20;;;;;;;72.82;10.65;;;;;;;7.71;100.00;100603.13;5011037;28;20026;-77
2022/02/20 10:35:48;;;;;;;81.35;10.85;;;;;;;7.72;100.00;100610.94;5011292;28;20033;-77
2022/02/20 10:38:14;;;;;;;76.70;9.82;;;;;;;7.75;100.00;100586.84;5011226;28;20030;-77
2022/02/20 10:40:43;;;;;;;69.75;10.55;;;;;;;7.75;100.00;100586.00;5011377;28;20030;-77
2022/02/20 10:43:28;;;;;;;91.93;11.13;;;;;;;7.77;100.00;100584.06;5011257;28;20061;-74
2022/02/20 10:46:10;;;;;;;78.90;10.15;;;;;;;7.76;100.00;100577.09;5010979;28;20095;-77
2022/02/20 10:48:40;;;;;;;105.25;13.27;;;;;;;7.79;100.00;100568.06;5010904;28;20076;-77
2022/02/20 10:51:06;;;;;;;93.35;12.07;;;;;;;7.83;100.00;100590.69;5011651;28;20041;-80
2022/02/20 10:53:32;;;;;;;80.32;11.40;;;;;;;7.82;100.00;100571.28;5011128;28;20438;-76
2022/02/20 10:55:59;;;;;;;89.63;12.57;;;;;;;7.82;100.00;100565.16;5011484;28;20041;-78
2022/02/20 10:58:27;;;;;;;74.10;11.80;;;;;;;7.83;100.00;100565.00;5011298;28;20469;-78
2022/02/20 11:01:01;;;;;;;88.70;12.05;;;;;;;7.91;100.00;100557.28;5011682;28;20033;-77
2022/02/20 11:03:28;;;;;;;93.88;12.25;;;;;;;7.94;100.00;100550.88;4994070;28;20029;-79
2022/02/20 11:05:56;;;;;;;90.35;11.50;;;;;;;7.96;100.00;100543.66;5009568;28;20402;-78
2022/02/20 11:08:23;;;;;;;92.68;11.43;;;;;;;7.99;100.00;100532.78;5010926;28;20056;-78
2022/02/20 11:10:50;;;;;;;76.65;10.85;;;;;;;8.04;100.00;100521.78;5011311;28;20030;-76
2022/02/20 11:13:17;;;;;;;86.43;12.25;;;;;;;8.06;100.00;100533.94;5010499;28;20037;-80
2022/02/20 11:15:45;;;;;;;84.45;11.90;;;;;;;8.09;100.00;100539.00;5011132;28;20328;-79
2022/02/20 11:18:16;;;;;;;92.43;11.07;;;;;;;8.10;100.00;100540.66;5026184;28;20335;-81